Emmenbrucke, Switzerland
Current Conditions -  °F | °C
As of 4:50 AM on Friday 28 Nov 2014 (Local Time) from LSME Reporting Station
Overcast Overcast  
Wind Chill: 45°   Ceiling: 700
Heat Index: 45°   Visibility: 6mi
Dew Point: 41°   Wind: 3mph
Humidity: 87%   Direction: 10°N
Pressure: 29.74"   Gusts: NA
Location:  47.07°N, 8.27°E
Report Text: LSME 280350Z AUTO 01003KT 9999NDV OVC007 07/05 Q1007 RMK YLO
Loading
Personal Weather Stations






























Interactive Weather Map New forecast layout! Learn more

10-Day Weather Forecast

Advertisements
Track Severe Weather on mobile